createdAt,value
2018-10-07T00:01:49.847Z,95.60
2018-10-07T00:04:18.113Z,95.80
2018-10-07T00:06:46.371Z,95.50
2018-10-07T00:09:14.643Z,95.50
2018-10-07T00:11:43.196Z,95.40
2018-10-07T00:14:11.501Z,95.50
2018-10-07T00:16:39.785Z,95.40
2018-10-07T00:19:08.017Z,95.50
2018-10-07T00:21:36.292Z,95.50
2018-10-07T00:24:04.561Z,95.60
2018-10-07T00:26:32.813Z,95.60
2018-10-07T00:29:01.105Z,95.90
2018-10-07T00:31:30.267Z,95.70
2018-10-07T00:33:58.561Z,95.70
2018-10-07T00:36:26.859Z,95.80
2018-10-07T00:38:55.148Z,95.80
2018-10-07T00:41:23.394Z,95.90
2018-10-07T00:43:51.689Z,95.90
2018-10-07T00:46:19.949Z,95.90
2018-10-07T00:48:48.245Z,95.80
2018-10-07T00:51:16.545Z,95.80
2018-10-07T00:53:44.808Z,95.80
2018-10-07T00:56:13.082Z,95.70
2018-10-07T00:58:41.380Z,95.70
2018-10-07T01:01:09.653Z,95.70
2018-10-07T01:03:38.014Z,95.70
2018-10-07T01:06:06.296Z,95.60
2018-10-07T01:08:34.625Z,95.50
2018-10-07T01:11:02.873Z,95.50
2018-10-07T01:13:31.205Z,95.50
2018-10-07T01:15:59.546Z,95.40
2018-10-07T01:18:27.889Z,95.50
2018-10-07T01:20:56.209Z,95.50
2018-10-07T01:23:24.486Z,95.40
2018-10-07T01:25:52.793Z,95.40
2018-10-07T01:28:21.057Z,95.30
2018-10-07T01:30:49.365Z,95.10
2018-10-07T01:33:17.645Z,95.00
2018-10-07T01:35:45.970Z,94.90
2018-10-07T01:38:14.657Z,94.80
2018-10-07T01:40:42.965Z,94.70
2018-10-07T01:43:11.270Z,94.60
2018-10-07T01:45:39.597Z,94.80
2018-10-07T01:48:07.914Z,94.70
2018-10-07T01:50:36.188Z,94.80
2018-10-07T01:53:04.439Z,94.70
2018-10-07T01:55:32.741Z,94.70
2018-10-07T01:58:01.005Z,94.50
2018-10-07T02:00:29.291Z,94.50
2018-10-07T02:02:57.542Z,94.50
2018-10-07T02:05:25.829Z,94.60
2018-10-07T02:07:54.128Z,94.50
2018-10-07T02:10:22.405Z,94.30
2018-10-07T02:12:50.661Z,94.10
2018-10-07T02:15:18.959Z,93.80
2018-10-07T02:17:47.218Z,93.90
2018-10-07T02:20:15.518Z,93.90
2018-10-07T02:22:43.745Z,93.80
2018-10-07T02:25:12.041Z,93.90
2018-10-07T02:27:40.332Z,94.40
2018-10-07T02:30:08.617Z,94.50
2018-10-07T02:32:36.864Z,94.60
2018-10-07T02:35:05.264Z,94.60
2018-10-07T02:37:33.505Z,94.60
2018-10-07T02:40:01.828Z,94.60
2018-10-07T02:42:30.073Z,94.60
2018-10-07T02:44:58.312Z,94.70
2018-10-07T02:47:26.670Z,94.60
2018-10-07T02:49:55.039Z,94.60
2018-10-07T02:52:28.770Z,94.50
2018-10-07T02:54:57.131Z,94.60
2018-10-07T02:57:25.982Z,94.40
2018-10-07T02:59:54.298Z,94.40
2018-10-07T03:02:22.618Z,94.50
2018-10-07T03:04:50.960Z,94.50
2018-10-07T03:07:19.219Z,94.60
2018-10-07T03:09:47.498Z,94.50
2018-10-07T03:12:15.825Z,94.40
2018-10-07T03:14:44.098Z,94.40
2018-10-07T03:17:12.399Z,94.50
2018-10-07T03:19:40.828Z,94.40
2018-10-07T03:22:09.147Z,94.50
2018-10-07T03:24:37.413Z,94.60
2018-10-07T03:27:05.743Z,94.70
2018-10-07T03:29:34.053Z,94.70
2018-10-07T03:32:02.343Z,94.80
2018-10-07T03:34:30.619Z,94.90
2018-10-07T03:36:58.912Z,94.90
2018-10-07T03:39:27.180Z,95.00
2018-10-07T03:41:55.499Z,94.90
2018-10-07T03:44:23.788Z,95.00
2018-10-07T03:46:52.068Z,95.10
2018-10-07T03:49:20.381Z,95.00
2018-10-07T03:51:48.644Z,95.00
2018-10-07T03:54:16.971Z,95.30
2018-10-07T03:56:45.309Z,95.00
2018-10-07T03:59:13.591Z,95.00
2018-10-07T04:01:41.923Z,95.00
2018-10-07T04:04:10.219Z,95.10
2018-10-07T04:06:38.523Z,95.50
2018-10-07T04:09:08.411Z,95.10
2018-10-07T04:11:36.720Z,95.10
2018-10-07T04:14:05.031Z,95.00
2018-10-07T04:16:33.382Z,95.00
2018-10-07T04:19:01.706Z,95.00
2018-10-07T04:21:29.997Z,95.00
2018-10-07T04:23:58.270Z,95.00
2018-10-07T04:26:26.590Z,94.90
2018-10-07T04:28:54.945Z,94.90
2018-10-07T04:31:23.677Z,94.90
2018-10-07T04:33:52.068Z,95.00
2018-10-07T04:36:20.445Z,95.00
2018-10-07T04:38:48.736Z,94.90
2018-10-07T04:41:17.072Z,94.90
2018-10-07T04:43:45.409Z,94.80
2018-10-07T04:46:13.694Z,94.80
2018-10-07T04:48:41.994Z,94.80
2018-10-07T04:51:10.304Z,94.80
2018-10-07T04:53:38.619Z,94.70
2018-10-07T04:56:06.894Z,94.70
2018-10-07T04:58:35.158Z,94.70
2018-10-07T05:01:03.460Z,94.70
2018-10-07T05:03:31.719Z,94.60
2018-10-07T05:06:00.088Z,94.60
2018-10-07T05:08:28.439Z,94.60
2018-10-07T05:11:03.389Z,94.60
2018-10-07T05:13:40.343Z,94.50
2018-10-07T05:16:08.726Z,94.50
2018-10-07T05:18:37.131Z,94.50
2018-10-07T05:21:05.518Z,94.50
2018-10-07T05:23:33.871Z,94.50
2018-10-07T05:26:02.169Z,94.50
2018-10-07T05:28:30.515Z,94.90
2018-10-07T05:30:58.772Z,94.70
2018-10-07T05:33:27.112Z,94.70
2018-10-07T05:35:55.472Z,94.70
2018-10-07T05:38:23.779Z,94.80
2018-10-07T05:40:52.121Z,94.80
2018-10-07T05:43:20.400Z,94.80
2018-10-07T05:45:48.716Z,94.90
2018-10-07T05:48:16.992Z,94.90
2018-10-07T05:50:45.355Z,94.90
2018-10-07T05:53:13.619Z,94.90
2018-10-07T05:55:41.907Z,95.00
2018-10-07T05:58:10.221Z,95.00
2018-10-07T06:00:38.667Z,95.10
2018-10-07T06:03:13.943Z,95.10
2018-10-07T06:05:42.270Z,95.10
2018-10-07T06:08:11.417Z,95.20
2018-10-07T06:10:39.748Z,95.20
2018-10-07T06:13:08.087Z,95.20
2018-10-07T06:15:38.269Z,95.20
2018-10-07T06:18:06.875Z,95.20
2018-10-07T06:20:35.220Z,95.30
2018-10-07T06:23:03.825Z,95.30
2018-10-07T06:25:32.212Z,95.40
2018-10-07T06:28:00.513Z,95.30
2018-10-07T06:30:29.014Z,95.30
2018-10-07T06:32:57.359Z,95.40
2018-10-07T06:35:26.183Z,95.30
2018-10-07T06:37:55.375Z,95.30
2018-10-07T06:40:23.736Z,95.40
2018-10-07T06:42:52.056Z,95.40
2018-10-07T06:45:20.415Z,95.40
2018-10-07T06:47:48.743Z,95.40
2018-10-07T06:50:17.061Z,95.40
2018-10-07T06:52:45.427Z,95.40
2018-10-07T06:55:13.714Z,95.50
2018-10-07T06:57:41.981Z,95.50
2018-10-07T07:00:10.327Z,95.50
2018-10-07T07:02:38.711Z,95.50
2018-10-07T07:05:07.012Z,95.50
2018-10-07T07:07:35.314Z,95.50
2018-10-07T07:10:03.638Z,95.50
2018-10-07T07:12:32.056Z,95.50
2018-10-07T07:15:00.371Z,95.50
2018-10-07T07:17:28.664Z,95.50
2018-10-07T07:19:56.998Z,95.50
2018-10-07T07:22:25.303Z,95.40
2018-10-07T07:24:53.695Z,95.40
2018-10-07T07:27:22.055Z,95.40
2018-10-07T07:29:50.355Z,95.40
2018-10-07T07:32:18.658Z,95.30
2018-10-07T07:34:46.976Z,95.20
2018-10-07T07:37:15.284Z,95.10
2018-10-07T07:39:43.540Z,95.10
2018-10-07T07:42:11.850Z,95.30
2018-10-07T07:44:40.154Z,94.90
2018-10-07T07:47:08.525Z,94.80
2018-10-07T07:49:36.808Z,94.80
2018-10-07T07:52:05.234Z,94.70
2018-10-07T07:54:33.740Z,94.60
2018-10-07T07:57:02.150Z,94.50
2018-10-07T07:59:30.530Z,94.50
2018-10-07T08:01:58.847Z,94.50
2018-10-07T08:04:27.837Z,94.40
2018-10-07T08:06:56.243Z,94.30
2018-10-07T08:09:24.592Z,94.20
2018-10-07T08:11:52.876Z,94.20
2018-10-07T08:14:21.172Z,94.20
2018-10-07T08:16:49.495Z,94.40
2018-10-07T08:19:17.791Z,94.70
2018-10-07T08:21:46.076Z,95.00
2018-10-07T08:24:14.383Z,94.90
2018-10-07T08:26:42.772Z,93.90
2018-10-07T08:29:11.635Z,93.40
2018-10-07T08:31:39.959Z,92.80
2018-10-07T08:34:08.292Z,92.00
2018-10-07T08:36:36.566Z,91.50
2018-10-07T08:39:07.348Z,91.30
2018-10-07T08:41:35.704Z,91.00
2018-10-07T08:44:04.031Z,90.80
2018-10-07T08:46:32.547Z,90.50
2018-10-07T08:49:00.864Z,90.50
2018-10-07T08:51:29.182Z,90.20
2018-10-07T08:53:57.536Z,90.10
2018-10-07T08:56:26.015Z,90.20
2018-10-07T08:58:54.459Z,90.00
2018-10-07T09:01:22.922Z,90.10
2018-10-07T09:03:51.500Z,88.70
2018-10-07T09:06:19.896Z,88.60
2018-10-07T09:08:48.384Z,88.00
2018-10-07T09:11:16.787Z,88.00
2018-10-07T09:13:45.121Z,87.80
2018-10-07T09:16:13.445Z,87.10
2018-10-07T09:18:41.772Z,86.10
2018-10-07T09:21:10.152Z,85.90
2018-10-07T09:23:38.453Z,85.40
2018-10-07T09:26:06.791Z,85.10
2018-10-07T09:28:35.363Z,85.40
2018-10-07T09:31:03.717Z,85.30
2018-10-07T09:33:32.387Z,84.40
2018-10-07T09:36:00.759Z,84.10
2018-10-07T09:38:29.144Z,83.30
2018-10-07T09:40:57.555Z,83.40
2018-10-07T09:43:25.921Z,83.90
2018-10-07T09:45:54.195Z,82.60
2018-10-07T09:48:22.548Z,82.10
2018-10-07T09:50:50.885Z,81.90
2018-10-07T09:53:19.254Z,80.60
2018-10-07T09:55:47.682Z,80.90
2018-10-07T09:58:15.935Z,80.10
2018-10-07T10:00:44.215Z,79.50
2018-10-07T10:03:12.786Z,78.30
2018-10-07T10:05:41.067Z,78.30
2018-10-07T10:08:09.735Z,78.10
2018-10-07T10:10:38.159Z,77.10
2018-10-07T10:13:06.545Z,76.60
2018-10-07T10:15:35.015Z,75.70
2018-10-07T10:18:06.836Z,74.60
2018-10-07T10:20:44.146Z,73.90
2018-10-07T10:23:17.900Z,72.50
2018-10-07T10:28:02.388Z,72.50
2018-10-07T10:30:41.991Z,73.90
2018-10-07T10:33:29.499Z,72.90
2018-10-07T10:36:05.451Z,71.70
2018-10-07T10:38:44.042Z,68.90
2018-10-07T10:41:22.045Z,67.20
2018-10-07T10:43:59.400Z,64.50
2018-10-07T10:46:31.684Z,61.20
2018-10-07T10:49:06.843Z,59.80
2018-10-07T10:51:58.547Z,58.60
2018-10-07T10:54:33.022Z,56.60
2018-10-07T10:57:08.951Z,55.50
2018-10-07T10:59:45.927Z,54.40
2018-10-07T11:02:30.077Z,54.10
2018-10-07T11:07:12.866Z,53.30
2018-10-07T11:09:49.787Z,52.20
2018-10-07T11:12:44.722Z,52.90
2018-10-07T11:15:24.689Z,49.90
2018-10-07T11:18:04.765Z,49.70
2018-10-07T11:20:53.116Z,47.90
2018-10-07T11:23:28.919Z,46.80
2018-10-07T11:26:05.840Z,45.80
2018-10-07T11:28:44.783Z,45.50
2018-10-07T11:31:19.591Z,45.00
2018-10-07T11:34:12.891Z,43.70
2018-10-07T11:37:06.144Z,43.30
2018-10-07T11:40:47.484Z,43.30
2018-10-07T11:43:28.289Z,41.90
2018-10-07T11:46:03.263Z,42.10
2018-10-07T11:48:42.000Z,40.50
2018-10-07T11:53:28.541Z,40.60
2018-10-07T11:55:56.946Z,39.90
2018-10-07T11:58:25.410Z,40.70
2018-10-07T12:00:53.762Z,39.50
2018-10-07T12:03:22.133Z,41.20
2018-10-07T12:05:50.463Z,40.00
2018-10-07T12:08:18.866Z,38.90
2018-10-07T12:10:47.181Z,38.00
2018-10-07T12:13:15.520Z,36.60
2018-10-07T12:15:43.940Z,37.50
2018-10-07T12:18:12.458Z,38.00
2018-10-07T12:20:40.821Z,38.20
2018-10-07T12:23:09.195Z,37.50
2018-10-07T12:25:37.595Z,36.10
2018-10-07T12:28:06.174Z,35.40
2018-10-07T12:30:34.438Z,34.50
2018-10-07T12:33:02.772Z,34.70
2018-10-07T12:35:31.134Z,34.50
2018-10-07T12:37:59.410Z,33.50
2018-10-07T12:40:27.767Z,33.20
2018-10-07T12:42:56.087Z,32.30
2018-10-07T12:45:24.380Z,32.90
2018-10-07T12:47:52.797Z,32.50
2018-10-07T12:50:21.160Z,32.70
2018-10-07T12:52:50.123Z,32.50
2018-10-07T12:55:18.434Z,32.60
2018-10-07T12:57:46.767Z,32.70
2018-10-07T13:00:15.070Z,31.90
2018-10-07T13:02:43.371Z,31.30
2018-10-07T13:05:11.674Z,32.80
2018-10-07T13:07:40.052Z,32.50
2018-10-07T13:10:08.391Z,31.80
2018-10-07T13:12:36.780Z,32.20
2018-10-07T13:15:05.292Z,32.80
2018-10-07T13:17:33.911Z,33.10
2018-10-07T13:20:02.315Z,34.30
2018-10-07T13:22:30.658Z,34.40
2018-10-07T13:24:58.959Z,34.20
2018-10-07T13:27:27.364Z,34.40
2018-10-07T13:29:55.733Z,34.50
2018-10-07T13:32:24.107Z,34.00
2018-10-07T13:34:52.491Z,33.20
2018-10-07T13:37:20.814Z,33.50
2018-10-07T13:39:49.227Z,33.10
2018-10-07T13:42:17.536Z,33.50
2018-10-07T13:44:45.936Z,33.80
2018-10-07T13:47:14.312Z,33.50
2018-10-07T13:49:42.774Z,34.20
2018-10-07T13:52:11.106Z,34.70
2018-10-07T13:54:39.419Z,35.60
2018-10-07T13:57:07.766Z,36.10
2018-10-07T13:59:36.064Z,36.70
2018-10-07T14:02:04.379Z,37.90
2018-10-07T14:04:32.711Z,39.30
2018-10-07T14:07:00.999Z,39.60
2018-10-07T14:09:29.337Z,40.20
2018-10-07T14:11:57.641Z,41.10
2018-10-07T14:14:25.974Z,42.60
2018-10-07T14:16:54.339Z,42.80
2018-10-07T14:19:22.687Z,43.50
2018-10-07T14:21:51.051Z,44.50
2018-10-07T14:24:19.347Z,45.40
2018-10-07T14:26:47.695Z,46.00
2018-10-07T14:29:16.058Z,47.00
2018-10-07T14:31:44.416Z,48.10
2018-10-07T14:34:12.918Z,48.40
2018-10-07T14:36:41.276Z,49.10
2018-10-07T14:39:11.403Z,49.30
2018-10-07T14:41:39.712Z,49.60
2018-10-07T14:44:08.088Z,49.90
2018-10-07T14:46:36.450Z,50.10
2018-10-07T14:49:04.819Z,50.20
2018-10-07T14:51:33.051Z,50.90
2018-10-07T14:54:01.403Z,51.70
2018-10-07T14:56:37.413Z,52.50
2018-10-07T14:59:11.172Z,52.40
2018-10-07T15:01:39.527Z,52.30
2018-10-07T15:04:07.879Z,52.60
2018-10-07T15:06:36.283Z,53.00
2018-10-07T15:09:06.395Z,53.60
2018-10-07T15:11:34.741Z,53.70
2018-10-07T15:14:03.137Z,53.70
2018-10-07T15:16:31.483Z,54.20
2018-10-07T15:18:59.776Z,54.00
2018-10-07T15:21:28.253Z,54.10
2018-10-07T15:23:56.620Z,54.40
2018-10-07T15:26:24.932Z,54.90
2018-10-07T15:28:53.241Z,55.20
2018-10-07T15:31:21.982Z,55.90
2018-10-07T15:33:50.327Z,55.80
2018-10-07T15:36:18.726Z,56.70
2018-10-07T15:38:47.131Z,57.30
2018-10-07T15:41:15.511Z,56.80
2018-10-07T15:43:43.990Z,56.70
2018-10-07T15:46:12.475Z,56.70
2018-10-07T15:48:40.859Z,57.90
2018-10-07T15:51:09.307Z,58.50
2018-10-07T15:53:37.650Z,58.90
2018-10-07T15:56:05.959Z,59.50
2018-10-07T15:58:34.295Z,59.80
2018-10-07T16:01:02.704Z,60.50
2018-10-07T16:03:30.991Z,60.50
2018-10-07T16:05:59.297Z,61.10
2018-10-07T16:08:27.610Z,62.00
2018-10-07T16:10:55.975Z,62.60
2018-10-07T16:13:24.311Z,63.20
2018-10-07T16:15:52.743Z,64.30
2018-10-07T16:18:21.216Z,64.70
2018-10-07T16:20:49.449Z,64.90
2018-10-07T16:23:17.880Z,65.30
2018-10-07T16:25:46.260Z,65.70
2018-10-07T16:28:14.615Z,66.10
2018-10-07T16:30:42.955Z,66.30
2018-10-07T16:33:11.250Z,67.70
2018-10-07T16:35:39.692Z,67.30
2018-10-07T16:38:08.029Z,68.00
2018-10-07T16:40:36.483Z,68.60
2018-10-07T16:43:04.963Z,68.50
2018-10-07T16:45:33.298Z,67.90
2018-10-07T16:48:01.563Z,68.40
2018-10-07T16:50:29.941Z,69.30
2018-10-07T16:52:58.230Z,70.00
2018-10-07T16:55:26.885Z,70.10
2018-10-07T16:57:55.469Z,69.40
2018-10-07T17:00:23.970Z,69.90
2018-10-07T17:02:52.263Z,70.40
2018-10-07T17:05:21.035Z,71.10
2018-10-07T17:07:49.347Z,71.60
2018-10-07T17:10:17.713Z,72.60
2018-10-07T17:12:46.586Z,73.00
2018-10-07T17:15:14.839Z,74.00
2018-10-07T17:17:43.187Z,74.10
2018-10-07T17:20:11.619Z,74.70
2018-10-07T17:22:40.126Z,75.50
2018-10-07T17:25:08.490Z,76.00
2018-10-07T17:27:36.781Z,76.50
2018-10-07T17:30:05.147Z,76.90
2018-10-07T17:32:33.590Z,77.30
2018-10-07T17:35:01.971Z,77.80
2018-10-07T17:37:30.329Z,78.30
2018-10-07T17:39:58.747Z,78.60
2018-10-07T17:42:27.109Z,78.90
2018-10-07T17:44:55.619Z,79.30
2018-10-07T17:47:24.007Z,79.70
2018-10-07T17:49:52.558Z,80.10
2018-10-07T17:52:20.888Z,80.70
2018-10-07T17:54:49.241Z,81.30
2018-10-07T17:57:17.721Z,81.50
2018-10-07T17:59:46.124Z,81.80
2018-10-07T18:02:14.490Z,82.00
2018-10-07T18:04:42.847Z,82.30
2018-10-07T18:07:11.159Z,82.50
2018-10-07T18:09:39.450Z,82.80
2018-10-07T18:12:07.792Z,82.90
2018-10-07T18:14:36.112Z,83.30
2018-10-07T18:17:04.518Z,83.50
2018-10-07T18:19:32.858Z,83.80
2018-10-07T18:22:01.217Z,83.80
2018-10-07T18:24:29.532Z,84.10
2018-10-07T18:26:57.856Z,84.30
2018-10-07T18:29:26.235Z,84.60
2018-10-07T18:31:54.521Z,84.90
2018-10-07T18:34:22.916Z,85.00
2018-10-07T18:36:51.203Z,85.10
2018-10-07T18:39:19.511Z,85.10
2018-10-07T18:41:47.848Z,85.30
2018-10-07T18:44:16.135Z,85.50
2018-10-07T18:46:44.434Z,85.70
2018-10-07T18:49:12.810Z,86.30
2018-10-07T18:51:41.066Z,86.20
2018-10-07T18:54:09.527Z,86.10
2018-10-07T18:56:37.800Z,86.30
2018-10-07T18:59:06.121Z,86.40
2018-10-07T19:01:34.443Z,86.60
2018-10-07T19:04:02.927Z,86.80
2018-10-07T19:06:31.404Z,86.80
2018-10-07T19:08:59.708Z,86.90
2018-10-07T19:11:28.039Z,87.20
2018-10-07T19:13:56.339Z,87.20
2018-10-07T19:16:24.636Z,87.30
2018-10-07T19:18:52.931Z,87.60
2018-10-07T19:21:21.360Z,87.70
2018-10-07T19:23:49.859Z,87.60
2018-10-07T19:26:18.322Z,87.90
2018-10-07T19:28:46.610Z,88.10
2018-10-07T19:31:14.916Z,88.50
2018-10-07T19:33:43.210Z,88.60
2018-10-07T19:36:11.467Z,88.70
2018-10-07T19:38:39.776Z,88.90
2018-10-07T19:41:08.120Z,89.00
2018-10-07T19:43:36.399Z,89.20
2018-10-07T19:46:04.779Z,89.40
2018-10-07T19:48:33.167Z,89.40
2018-10-07T19:51:01.488Z,89.60
2018-10-07T19:53:29.754Z,89.60
2018-10-07T19:55:58.111Z,89.80
2018-10-07T19:58:26.655Z,90.00
2018-10-07T20:00:55.271Z,90.00
2018-10-07T20:03:23.721Z,89.90
2018-10-07T20:05:52.079Z,89.90
2018-10-07T20:08:20.495Z,90.00
2018-10-07T20:10:48.784Z,90.10
2018-10-07T20:13:17.116Z,90.10
2018-10-07T20:15:45.504Z,90.10
2018-10-07T20:18:13.914Z,90.00
2018-10-07T20:20:42.363Z,90.20
2018-10-07T20:23:10.682Z,90.20
2018-10-07T20:25:39.023Z,90.30
2018-10-07T20:28:07.311Z,90.30
2018-10-07T20:30:35.787Z,90.30
2018-10-07T20:33:04.095Z,90.30
2018-10-07T20:35:32.573Z,90.40
2018-10-07T20:38:00.891Z,90.40
2018-10-07T20:40:29.440Z,90.40
2018-10-07T20:42:57.657Z,90.50
2018-10-07T20:45:25.978Z,90.50
2018-10-07T20:47:54.431Z,90.50
2018-10-07T20:50:25.332Z,90.80
2018-10-07T20:52:51.121Z,90.50
2018-10-07T20:55:19.409Z,90.50
2018-10-07T20:57:47.807Z,90.50
2018-10-07T21:00:16.123Z,90.60
2018-10-07T21:02:44.495Z,90.60
2018-10-07T21:05:12.807Z,90.60
2018-10-07T21:07:41.110Z,90.70
2018-10-07T21:10:09.412Z,90.70
2018-10-07T21:12:37.737Z,90.70
2018-10-07T21:15:06.192Z,90.70
2018-10-07T21:17:34.584Z,90.80
2018-10-07T21:20:02.977Z,90.80
2018-10-07T21:22:31.447Z,90.80
2018-10-07T21:25:00.403Z,90.80
2018-10-07T21:27:28.835Z,90.90
2018-10-07T21:29:57.159Z,91.00
2018-10-07T21:32:25.490Z,91.00
2018-10-07T21:34:53.814Z,91.00
2018-10-07T21:37:22.406Z,91.10
2018-10-07T21:39:50.728Z,91.10
2018-10-07T21:42:19.086Z,91.20
2018-10-07T21:44:47.659Z,91.10
2018-10-07T21:47:18.319Z,91.20
2018-10-07T21:49:46.684Z,91.20
2018-10-07T21:52:14.927Z,91.20
2018-10-07T21:54:43.195Z,91.20
2018-10-07T21:57:11.500Z,91.30
2018-10-07T21:59:39.803Z,91.30
2018-10-07T22:02:08.091Z,91.30
2018-10-07T22:04:36.367Z,91.30
2018-10-07T22:07:04.813Z,91.40
2018-10-07T22:09:33.153Z,91.30
2018-10-07T22:12:01.495Z,91.40
2018-10-07T22:14:29.775Z,91.30
2018-10-07T22:16:58.046Z,91.40
2018-10-07T22:19:26.429Z,91.40
2018-10-07T22:21:54.707Z,91.40
2018-10-07T22:24:23.011Z,91.40
2018-10-07T22:26:51.359Z,91.40
2018-10-07T22:29:19.643Z,91.40
2018-10-07T22:31:47.910Z,91.50
2018-10-07T22:34:16.396Z,91.50
2018-10-07T22:36:44.755Z,91.60
2018-10-07T22:39:13.051Z,91.70
2018-10-07T22:41:41.329Z,91.70
2018-10-07T22:44:09.630Z,91.80
2018-10-07T22:46:37.907Z,91.80
2018-10-07T22:49:06.314Z,91.80
2018-10-07T22:51:34.603Z,92.20
2018-10-07T22:54:02.919Z,91.90
2018-10-07T22:56:31.197Z,91.90
2018-10-07T22:58:59.467Z,91.90
2018-10-07T23:01:27.848Z,91.90
2018-10-07T23:03:56.132Z,91.90
2018-10-07T23:06:24.422Z,91.90
2018-10-07T23:08:52.732Z,91.90
2018-10-07T23:11:21.008Z,91.90
2018-10-07T23:13:49.282Z,91.90
2018-10-07T23:16:17.582Z,91.90
2018-10-07T23:18:45.876Z,92.00
2018-10-07T23:21:14.159Z,92.00
2018-10-07T23:23:42.439Z,92.10
2018-10-07T23:26:10.740Z,92.10
2018-10-07T23:28:38.998Z,92.20
2018-10-07T23:31:07.387Z,92.20
2018-10-07T23:33:35.728Z,92.20
2018-10-07T23:36:04.027Z,92.20
2018-10-07T23:38:32.367Z,92.20
2018-10-07T23:41:00.671Z,92.20
2018-10-07T23:43:28.960Z,92.30
2018-10-07T23:45:57.264Z,92.30
2018-10-07T23:48:25.610Z,92.40
2018-10-07T23:50:53.892Z,92.40
2018-10-07T23:53:22.239Z,92.80
2018-10-07T23:55:50.547Z,92.60
2018-10-07T23:58:18.823Z,92.60
